sensor_id;sensor_type;location;lat;lon;timestamp;P1;durP1;ratioP1;P2;durP2;ratioP2
73650;SDS011;61944;52.538;6.108;2023-03-01T00:01:58;17.17;;;13.60;;
73650;SDS011;61944;52.538;6.108;2023-03-01T00:04:23;18.80;;;14.38;;
73650;SDS011;61944;52.538;6.108;2023-03-01T00:06:49;21.73;;;12.38;;
73650;SDS011;61944;52.538;6.108;2023-03-01T00:09:14;20.45;;;14.18;;
73650;SDS011;61944;52.538;6.108;2023-03-01T00:11:40;21.88;;;13.23;;
73650;SDS011;61944;52.538;6.108;2023-03-01T00:14:06;21.20;;;13.45;;
73650;SDS011;61944;52.538;6.108;2023-03-01T00:16:36;20.88;;;13.77;;
73650;SDS011;61944;52.538;6.108;2023-03-01T00:19:04;22.15;;;14.57;;
73650;SDS011;61944;52.538;6.108;2023-03-01T00:21:31;20.17;;;12.95;;
73650;SDS011;61944;52.538;6.108;2023-03-01T00:23:57;20.45;;;14.27;;
73650;SDS011;61944;52.538;6.108;2023-03-01T00:26:24;18.92;;;12.93;;
73650;SDS011;61944;52.538;6.108;2023-03-01T00:28:50;19.08;;;13.65;;
73650;SDS011;61944;52.538;6.108;2023-03-01T00:31:18;17.58;;;13.48;;
73650;SDS011;61944;52.538;6.108;2023-03-01T00:33:45;19.88;;;12.80;;
73650;SDS011;61944;52.538;6.108;2023-03-01T00:36:11;20.58;;;13.90;;
73650;SDS011;61944;52.538;6.108;2023-03-01T00:38:39;19.15;;;13.93;;
73650;SDS011;61944;52.538;6.108;2023-03-01T00:41:07;19.73;;;13.35;;
73650;SDS011;61944;52.538;6.108;2023-03-01T00:43:34;18.48;;;13.25;;
73650;SDS011;61944;52.538;6.108;2023-03-01T00:46:02;19.10;;;14.15;;
73650;SDS011;61944;52.538;6.108;2023-03-01T00:48:32;19.10;;;13.32;;
73650;SDS011;61944;52.538;6.108;2023-03-01T00:51:04;24.38;;;14.52;;
73650;SDS011;61944;52.538;6.108;2023-03-01T00:53:34;19.88;;;13.85;;
73650;SDS011;61944;52.538;6.108;2023-03-01T00:56:00;20.77;;;13.77;;
73650;SDS011;61944;52.538;6.108;2023-03-01T00:58:25;17.88;;;12.38;;
73650;SDS011;61944;52.538;6.108;2023-03-01T01:00:51;24.15;;;14.82;;
73650;SDS011;61944;52.538;6.108;2023-03-01T01:03:17;25.00;;;14.25;;
73650;SDS011;61944;52.538;6.108;2023-03-01T01:05:43;21.45;;;13.65;;
73650;SDS011;61944;52.538;6.108;2023-03-01T01:08:08;26.80;;;14.68;;
73650;SDS011;61944;52.538;6.108;2023-03-01T01:10:34;18.50;;;13.10;;
73650;SDS011;61944;52.538;6.108;2023-03-01T01:12:59;19.17;;;13.32;;
73650;SDS011;61944;52.538;6.108;2023-03-01T01:15:25;22.10;;;13.50;;
73650;SDS011;61944;52.538;6.108;2023-03-01T01:17:51;20.60;;;15.18;;
73650;SDS011;61944;52.538;6.108;2023-03-01T01:20:16;21.42;;;14.40;;
73650;SDS011;61944;52.538;6.108;2023-03-01T01:22:42;21.75;;;14.05;;
73650;SDS011;61944;52.538;6.108;2023-03-01T01:25:07;27.20;;;16.75;;
73650;SDS011;61944;52.538;6.108;2023-03-01T01:27:33;22.35;;;14.30;;
73650;SDS011;61944;52.538;6.108;2023-03-01T01:29:59;19.90;;;13.60;;
73650;SDS011;61944;52.538;6.108;2023-03-01T01:32:24;23.35;;;15.20;;
73650;SDS011;61944;52.538;6.108;2023-03-01T01:34:49;29.38;;;15.68;;
73650;SDS011;61944;52.538;6.108;2023-03-01T01:37:15;27.58;;;16.30;;
73650;SDS011;61944;52.538;6.108;2023-03-01T01:39:40;21.60;;;15.13;;
73650;SDS011;61944;52.538;6.108;2023-03-01T01:42:06;26.73;;;16.38;;
73650;SDS011;61944;52.538;6.108;2023-03-01T01:44:39;23.05;;;15.38;;
73650;SDS011;61944;52.538;6.108;2023-03-01T01:47:06;26.42;;;16.13;;
73650;SDS011;61944;52.538;6.108;2023-03-01T01:57:27;24.60;;;15.32;;
73650;SDS011;61944;52.538;6.108;2023-03-01T01:59:59;25.13;;;16.40;;
73650;SDS011;61944;52.538;6.108;2023-03-01T02:02:29;28.60;;;16.77;;
73650;SDS011;61944;52.538;6.108;2023-03-01T02:05:00;26.17;;;15.88;;
73650;SDS011;61944;52.538;6.108;2023-03-01T02:07:35;25.23;;;14.88;;
73650;SDS011;61944;52.538;6.108;2023-03-01T02:10:03;23.92;;;15.35;;
73650;SDS011;61944;52.538;6.108;2023-03-01T02:12:28;26.83;;;16.88;;
73650;SDS011;61944;52.538;6.108;2023-03-01T02:14:54;26.83;;;16.55;;
73650;SDS011;61944;52.538;6.108;2023-03-01T02:17:20;28.52;;;16.90;;
73650;SDS011;61944;52.538;6.108;2023-03-01T02:22:44;23.63;;;16.88;;
73650;SDS011;61944;52.538;6.108;2023-03-01T02:28:05;30.50;;;17.15;;
73650;SDS011;61944;52.538;6.108;2023-03-01T02:30:40;28.58;;;17.67;;
73650;SDS011;61944;52.538;6.108;2023-03-01T02:33:27;29.15;;;17.73;;
73650;SDS011;61944;52.538;6.108;2023-03-01T02:35:54;26.73;;;17.33;;
73650;SDS011;61944;52.538;6.108;2023-03-01T02:38:20;26.23;;;17.08;;
73650;SDS011;61944;52.538;6.108;2023-03-01T02:40:47;29.45;;;17.80;;
73650;SDS011;61944;52.538;6.108;2023-03-01T02:43:16;26.95;;;17.25;;
73650;SDS011;61944;52.538;6.108;2023-03-01T02:45:52;29.92;;;18.67;;
73650;SDS011;61944;52.538;6.108;2023-03-01T02:48:22;30.80;;;18.48;;
73650;SDS011;61944;52.538;6.108;2023-03-01T02:53:25;30.58;;;18.33;;
73650;SDS011;61944;52.538;6.108;2023-03-01T02:55:58;29.20;;;17.10;;
73650;SDS011;61944;52.538;6.108;2023-03-01T02:58:24;27.33;;;17.02;;
73650;SDS011;61944;52.538;6.108;2023-03-01T03:00:49;26.65;;;16.58;;
73650;SDS011;61944;52.538;6.108;2023-03-01T03:03:16;32.03;;;18.17;;
73650;SDS011;61944;52.538;6.108;2023-03-01T03:05:44;30.67;;;17.70;;
73650;SDS011;61944;52.538;6.108;2023-03-01T03:08:09;31.85;;;19.23;;
73650;SDS011;61944;52.538;6.108;2023-03-01T03:10:37;33.60;;;18.80;;
73650;SDS011;61944;52.538;6.108;2023-03-01T03:13:05;31.02;;;17.65;;
73650;SDS011;61944;52.538;6.108;2023-03-01T03:15:35;27.73;;;16.70;;
73650;SDS011;61944;52.538;6.108;2023-03-01T03:18:02;32.53;;;18.35;;
73650;SDS011;61944;52.538;6.108;2023-03-01T03:20:30;31.58;;;18.60;;
73650;SDS011;61944;52.538;6.108;2023-03-01T03:22:57;30.42;;;17.85;;
73650;SDS011;61944;52.538;6.108;2023-03-01T03:25:26;37.90;;;20.15;;
73650;SDS011;61944;52.538;6.108;2023-03-01T03:27:53;31.38;;;18.15;;
73650;SDS011;61944;52.538;6.108;2023-03-01T03:30:21;40.55;;;20.58;;
73650;SDS011;61944;52.538;6.108;2023-03-01T03:32:49;38.05;;;20.30;;
73650;SDS011;61944;52.538;6.108;2023-03-01T03:35:25;35.67;;;19.92;;
73650;SDS011;61944;52.538;6.108;2023-03-01T03:37:56;40.42;;;19.90;;
73650;SDS011;61944;52.538;6.108;2023-03-01T03:40:40;41.65;;;21.80;;
73650;SDS011;61944;52.538;6.108;2023-03-01T03:43:17;39.58;;;20.15;;
73650;SDS011;61944;52.538;6.108;2023-03-01T03:45:45;35.22;;;20.40;;
73650;SDS011;61944;52.538;6.108;2023-03-01T03:48:11;35.03;;;20.10;;
73650;SDS011;61944;52.538;6.108;2023-03-01T03:50:37;35.85;;;21.70;;
73650;SDS011;61944;52.538;6.108;2023-03-01T03:53:05;42.42;;;21.45;;
73650;SDS011;61944;52.538;6.108;2023-03-01T03:55:32;36.60;;;21.38;;
73650;SDS011;61944;52.538;6.108;2023-03-01T03:57:58;37.08;;;20.65;;
73650;SDS011;61944;52.538;6.108;2023-03-01T04:02:57;32.20;;;19.35;;
73650;SDS011;61944;52.538;6.108;2023-03-01T04:05:22;35.63;;;20.75;;
73650;SDS011;61944;52.538;6.108;2023-03-01T04:07:48;41.80;;;21.73;;
73650;SDS011;61944;52.538;6.108;2023-03-01T04:10:14;38.90;;;21.63;;
73650;SDS011;61944;52.538;6.108;2023-03-01T04:12:41;34.35;;;20.45;;
73650;SDS011;61944;52.538;6.108;2023-03-01T04:15:12;37.50;;;21.67;;
73650;SDS011;61944;52.538;6.108;2023-03-01T04:17:45;34.22;;;20.92;;
73650;SDS011;61944;52.538;6.108;2023-03-01T04:20:12;34.03;;;19.40;;
73650;SDS011;61944;52.538;6.108;2023-03-01T04:22:42;30.67;;;19.63;;
73650;SDS011;61944;52.538;6.108;2023-03-01T04:25:11;32.20;;;20.42;;
73650;SDS011;61944;52.538;6.108;2023-03-01T04:27:39;34.92;;;22.65;;
73650;SDS011;61944;52.538;6.108;2023-03-01T04:30:04;35.17;;;19.88;;
73650;SDS011;61944;52.538;6.108;2023-03-01T04:32:31;30.33;;;18.75;;
73650;SDS011;61944;52.538;6.108;2023-03-01T04:34:56;39.05;;;19.33;;
73650;SDS011;61944;52.538;6.108;2023-03-01T04:37:23;29.88;;;17.50;;
73650;SDS011;61944;52.538;6.108;2023-03-01T04:39:52;36.28;;;19.23;;
73650;SDS011;61944;52.538;6.108;2023-03-01T04:42:18;33.15;;;17.65;;
73650;SDS011;61944;52.538;6.108;2023-03-01T04:44:43;31.45;;;16.67;;
73650;SDS011;61944;52.538;6.108;2023-03-01T04:47:09;35.35;;;17.40;;
73650;SDS011;61944;52.538;6.108;2023-03-01T04:49:35;25.80;;;16.67;;
73650;SDS011;61944;52.538;6.108;2023-03-01T04:52:00;31.48;;;17.33;;
73650;SDS011;61944;52.538;6.108;2023-03-01T04:54:29;32.03;;;16.15;;
73650;SDS011;61944;52.538;6.108;2023-03-01T04:56:55;26.10;;;16.50;;
73650;SDS011;61944;52.538;6.108;2023-03-01T04:59:20;31.55;;;16.52;;
73650;SDS011;61944;52.538;6.108;2023-03-01T05:01:49;31.45;;;17.35;;
73650;SDS011;61944;52.538;6.108;2023-03-01T05:04:15;32.08;;;16.35;;
73650;SDS011;61944;52.538;6.108;2023-03-01T05:06:40;30.77;;;16.67;;
73650;SDS011;61944;52.538;6.108;2023-03-01T05:09:06;25.90;;;16.73;;
73650;SDS011;61944;52.538;6.108;2023-03-01T05:11:31;27.20;;;15.50;;
73650;SDS011;61944;52.538;6.108;2023-03-01T05:14:00;26.48;;;17.65;;
73650;SDS011;61944;52.538;6.108;2023-03-01T05:16:30;24.80;;;15.73;;
73650;SDS011;61944;52.538;6.108;2023-03-01T05:18:56;21.27;;;14.45;;
73650;SDS011;61944;52.538;6.108;2023-03-01T05:21:22;25.25;;;14.02;;
73650;SDS011;61944;52.538;6.108;2023-03-01T05:23:48;28.02;;;16.00;;
73650;SDS011;61944;52.538;6.108;2023-03-01T05:26:14;23.77;;;15.10;;
73650;SDS011;61944;52.538;6.108;2023-03-01T05:28:40;22.20;;;14.27;;
73650;SDS011;61944;52.538;6.108;2023-03-01T05:31:06;23.77;;;15.20;;
73650;SDS011;61944;52.538;6.108;2023-03-01T05:33:35;23.35;;;14.70;;
73650;SDS011;61944;52.538;6.108;2023-03-01T05:36:02;24.95;;;15.43;;
73650;SDS011;61944;52.538;6.108;2023-03-01T05:38:27;22.80;;;14.50;;
73650;SDS011;61944;52.538;6.108;2023-03-01T05:40:53;20.60;;;13.98;;
73650;SDS011;61944;52.538;6.108;2023-03-01T05:43:18;26.40;;;14.07;;
73650;SDS011;61944;52.538;6.108;2023-03-01T05:45:44;19.98;;;13.90;;
73650;SDS011;61944;52.538;6.108;2023-03-01T05:48:09;17.67;;;13.70;;
73650;SDS011;61944;52.538;6.108;2023-03-01T05:50:37;19.52;;;13.15;;
73650;SDS011;61944;52.538;6.108;2023-03-01T05:53:09;21.83;;;13.60;;
73650;SDS011;61944;52.538;6.108;2023-03-01T05:55:37;19.60;;;13.18;;
73650;SDS011;61944;52.538;6.108;2023-03-01T05:58:04;20.58;;;13.38;;
73650;SDS011;61944;52.538;6.108;2023-03-01T06:00:31;21.90;;;14.75;;
73650;SDS011;61944;52.538;6.108;2023-03-01T06:02:58;20.25;;;14.15;;
73650;SDS011;61944;52.538;6.108;2023-03-01T06:05:26;20.33;;;13.90;;
73650;SDS011;61944;52.538;6.108;2023-03-01T06:07:52;20.75;;;14.23;;
73650;SDS011;61944;52.538;6.108;2023-03-01T06:10:19;19.65;;;13.07;;
73650;SDS011;61944;52.538;6.108;2023-03-01T06:12:45;21.60;;;13.70;;
73650;SDS011;61944;52.538;6.108;2023-03-01T06:15:12;21.92;;;12.88;;
73650;SDS011;61944;52.538;6.108;2023-03-01T06:17:41;19.92;;;13.77;;
73650;SDS011;61944;52.538;6.108;2023-03-01T06:20:09;19.65;;;13.75;;
73650;SDS011;61944;52.538;6.108;2023-03-01T06:22:39;20.20;;;13.90;;
73650;SDS011;61944;52.538;6.108;2023-03-01T06:25:05;16.83;;;12.57;;
73650;SDS011;61944;52.538;6.108;2023-03-01T06:27:32;17.30;;;13.18;;
73650;SDS011;61944;52.538;6.108;2023-03-01T06:29:57;17.98;;;13.07;;
73650;SDS011;61944;52.538;6.108;2023-03-01T06:32:23;18.50;;;12.93;;
73650;SDS011;61944;52.538;6.108;2023-03-01T06:34:49;19.05;;;13.60;;
73650;SDS011;61944;52.538;6.108;2023-03-01T06:37:14;18.80;;;13.38;;
73650;SDS011;61944;52.538;6.108;2023-03-01T06:39:40;19.92;;;14.25;;
73650;SDS011;61944;52.538;6.108;2023-03-01T06:42:06;19.30;;;13.13;;
73650;SDS011;61944;52.538;6.108;2023-03-01T06:44:32;18.38;;;13.23;;
73650;SDS011;61944;52.538;6.108;2023-03-01T06:46:58;17.50;;;12.90;;
73650;SDS011;61944;52.538;6.108;2023-03-01T06:49:24;17.88;;;13.00;;
73650;SDS011;61944;52.538;6.108;2023-03-01T06:51:49;19.38;;;12.85;;
73650;SDS011;61944;52.538;6.108;2023-03-01T06:54:15;18.65;;;14.18;;
73650;SDS011;61944;52.538;6.108;2023-03-01T06:56:40;16.95;;;12.60;;
73650;SDS011;61944;52.538;6.108;2023-03-01T06:59:05;15.73;;;12.32;;
73650;SDS011;61944;52.538;6.108;2023-03-01T07:01:31;16.55;;;12.15;;
73650;SDS011;61944;52.538;6.108;2023-03-01T07:03:56;20.00;;;12.82;;
73650;SDS011;61944;52.538;6.108;2023-03-01T07:06:22;19.13;;;14.07;;
73650;SDS011;61944;52.538;6.108;2023-03-01T07:08:48;21.08;;;14.07;;
73650;SDS011;61944;52.538;6.108;2023-03-01T07:11:13;20.42;;;14.85;;
73650;SDS011;61944;52.538;6.108;2023-03-01T07:13:39;19.92;;;13.63;;
73650;SDS011;61944;52.538;6.108;2023-03-01T07:16:05;21.77;;;14.18;;
73650;SDS011;61944;52.538;6.108;2023-03-01T07:18:30;23.85;;;14.65;;
73650;SDS011;61944;52.538;6.108;2023-03-01T07:20:56;20.02;;;14.25;;
73650;SDS011;61944;52.538;6.108;2023-03-01T07:23:21;21.45;;;14.25;;
73650;SDS011;61944;52.538;6.108;2023-03-01T07:25:53;19.60;;;14.10;;
73650;SDS011;61944;52.538;6.108;2023-03-01T07:28:19;23.70;;;15.13;;
73650;SDS011;61944;52.538;6.108;2023-03-01T07:30:45;21.52;;;14.25;;
73650;SDS011;61944;52.538;6.108;2023-03-01T07:33:10;21.65;;;14.52;;
73650;SDS011;61944;52.538;6.108;2023-03-01T07:35:35;20.27;;;14.40;;
73650;SDS011;61944;52.538;6.108;2023-03-01T07:38:01;23.30;;;14.27;;
73650;SDS011;61944;52.538;6.108;2023-03-01T07:40:26;21.63;;;13.88;;
73650;SDS011;61944;52.538;6.108;2023-03-01T07:42:55;20.45;;;14.50;;
73650;SDS011;61944;52.538;6.108;2023-03-01T07:45:21;21.95;;;15.02;;
73650;SDS011;61944;52.538;6.108;2023-03-01T07:47:46;23.15;;;15.65;;
73650;SDS011;61944;52.538;6.108;2023-03-01T07:50:12;21.98;;;15.10;;
73650;SDS011;61944;52.538;6.108;2023-03-01T07:52:38;23.05;;;14.45;;
73650;SDS011;61944;52.538;6.108;2023-03-01T07:55:04;23.92;;;17.15;;
73650;SDS011;61944;52.538;6.108;2023-03-01T07:57:29;25.88;;;15.77;;
73650;SDS011;61944;52.538;6.108;2023-03-01T07:59:55;24.00;;;15.45;;
73650;SDS011;61944;52.538;6.108;2023-03-01T08:02:20;25.10;;;16.42;;
73650;SDS011;61944;52.538;6.108;2023-03-01T08:04:46;28.60;;;17.10;;
73650;SDS011;61944;52.538;6.108;2023-03-01T08:07:11;29.27;;;17.15;;
73650;SDS011;61944;52.538;6.108;2023-03-01T08:09:36;26.20;;;16.85;;
73650;SDS011;61944;52.538;6.108;2023-03-01T08:12:02;24.65;;;15.55;;
73650;SDS011;61944;52.538;6.108;2023-03-01T08:14:29;24.40;;;16.27;;
73650;SDS011;61944;52.538;6.108;2023-03-01T08:16:55;31.92;;;17.88;;
73650;SDS011;61944;52.538;6.108;2023-03-01T08:19:21;28.90;;;19.45;;
73650;SDS011;61944;52.538;6.108;2023-03-01T08:21:46;26.83;;;16.85;;
73650;SDS011;61944;52.538;6.108;2023-03-01T08:24:11;29.25;;;17.38;;
73650;SDS011;61944;52.538;6.108;2023-03-01T08:26:37;27.35;;;16.90;;
73650;SDS011;61944;52.538;6.108;2023-03-01T08:29:02;26.55;;;17.13;;
73650;SDS011;61944;52.538;6.108;2023-03-01T08:31:30;29.35;;;18.40;;
73650;SDS011;61944;52.538;6.108;2023-03-01T08:33:56;32.28;;;18.50;;
73650;SDS011;61944;52.538;6.108;2023-03-01T08:36:25;33.17;;;20.10;;
73650;SDS011;61944;52.538;6.108;2023-03-01T08:38:52;34.35;;;20.52;;
73650;SDS011;61944;52.538;6.108;2023-03-01T08:41:17;28.52;;;19.67;;
73650;SDS011;61944;52.538;6.108;2023-03-01T08:43:43;32.22;;;19.38;;
73650;SDS011;61944;52.538;6.108;2023-03-01T08:46:09;33.83;;;19.58;;
73650;SDS011;61944;52.538;6.108;2023-03-01T08:48:34;33.80;;;20.20;;
73650;SDS011;61944;52.538;6.108;2023-03-01T08:51:10;31.05;;;19.35;;
73650;SDS011;61944;52.538;6.108;2023-03-01T08:53:37;34.00;;;19.50;;
73650;SDS011;61944;52.538;6.108;2023-03-01T08:56:03;28.73;;;18.80;;
73650;SDS011;61944;52.538;6.108;2023-03-01T08:58:29;34.72;;;20.08;;
73650;SDS011;61944;52.538;6.108;2023-03-01T09:00:54;35.15;;;21.63;;
73650;SDS011;61944;52.538;6.108;2023-03-01T09:03:21;34.63;;;20.02;;
73650;SDS011;61944;52.538;6.108;2023-03-01T09:05:48;36.15;;;19.13;;
73650;SDS011;61944;52.538;6.108;2023-03-01T09:08:15;33.38;;;19.23;;
73650;SDS011;61944;52.538;6.108;2023-03-01T09:10:41;36.28;;;19.10;;
73650;SDS011;61944;52.538;6.108;2023-03-01T09:13:06;34.63;;;20.92;;
73650;SDS011;61944;52.538;6.108;2023-03-01T09:15:32;35.97;;;21.63;;
73650;SDS011;61944;52.538;6.108;2023-03-01T09:17:58;39.05;;;21.42;;
73650;SDS011;61944;52.538;6.108;2023-03-01T09:20:24;34.95;;;21.30;;
73650;SDS011;61944;52.538;6.108;2023-03-01T09:22:49;34.10;;;20.55;;
73650;SDS011;61944;52.538;6.108;2023-03-01T09:25:14;34.88;;;21.08;;
73650;SDS011;61944;52.538;6.108;2023-03-01T09:27:40;31.58;;;20.13;;
73650;SDS011;61944;52.538;6.108;2023-03-01T09:30:05;30.80;;;18.65;;
73650;SDS011;61944;52.538;6.108;2023-03-01T09:32:31;31.42;;;19.63;;
73650;SDS011;61944;52.538;6.108;2023-03-01T09:34:57;30.00;;;19.23;;
73650;SDS011;61944;52.538;6.108;2023-03-01T09:37:33;28.48;;;18.50;;
73650;SDS011;61944;52.538;6.108;2023-03-01T09:39:59;32.85;;;18.98;;
73650;SDS011;61944;52.538;6.108;2023-03-01T09:42:24;28.55;;;18.02;;
73650;SDS011;61944;52.538;6.108;2023-03-01T09:45:00;28.73;;;16.60;;
73650;SDS011;61944;52.538;6.108;2023-03-01T09:47:32;29.05;;;17.67;;
73650;SDS011;61944;52.538;6.108;2023-03-01T09:52:41;26.73;;;15.40;;
73650;SDS011;61944;52.538;6.108;2023-03-01T09:55:11;23.65;;;14.07;;
73650;SDS011;61944;52.538;6.108;2023-03-01T09:57:55;21.92;;;13.02;;
73650;SDS011;61944;52.538;6.108;2023-03-01T10:00:46;21.02;;;11.90;;
73650;SDS011;61944;52.538;6.108;2023-03-01T10:03:28;17.33;;;9.20;;
73650;SDS011;61944;52.538;6.108;2023-03-01T10:08:41;12.70;;;8.07;;
73650;SDS011;61944;52.538;6.108;2023-03-01T10:11:21;12.45;;;7.03;;
73650;SDS011;61944;52.538;6.108;2023-03-01T10:16:47;11.38;;;6.95;;
73650;SDS011;61944;52.538;6.108;2023-03-01T10:22:15;10.70;;;6.53;;
73650;SDS011;61944;52.538;6.108;2023-03-01T10:24:46;11.98;;;6.22;;
73650;SDS011;61944;52.538;6.108;2023-03-01T10:27:20;10.13;;;6.18;;
73650;SDS011;61944;52.538;6.108;2023-03-01T10:32:46;10.57;;;5.60;;
73650;SDS011;61944;52.538;6.108;2023-03-01T10:35:23;9.40;;;6.38;;
73650;SDS011;61944;52.538;6.108;2023-03-01T10:38:09;10.70;;;5.47;;
73650;SDS011;61944;52.538;6.108;2023-03-01T10:40:36;10.18;;;5.43;;
73650;SDS011;61944;52.538;6.108;2023-03-01T10:43:48;9.68;;;5.70;;
73650;SDS011;61944;52.538;6.108;2023-03-01T10:46:27;8.52;;;6.78;;
73650;SDS011;61944;52.538;6.108;2023-03-01T10:51:45;12.07;;;6.32;;
73650;SDS011;61944;52.538;6.108;2023-03-01T10:56:52;8.15;;;4.72;;
73650;SDS011;61944;52.538;6.108;2023-03-01T11:07:48;7.57;;;5.15;;
73650;SDS011;61944;52.538;6.108;2023-03-01T11:10:35;10.40;;;4.90;;
73650;SDS011;61944;52.538;6.108;2023-03-01T11:13:15;7.80;;;5.28;;
73650;SDS011;61944;52.538;6.108;2023-03-01T11:15:43;7.68;;;5.07;;
73650;SDS011;61944;52.538;6.108;2023-03-01T11:18:23;6.20;;;4.53;;
73650;SDS011;61944;52.538;6.108;2023-03-01T11:20:56;8.98;;;5.95;;
73650;SDS011;61944;52.538;6.108;2023-03-01T11:23:25;9.57;;;5.57;;
73650;SDS011;61944;52.538;6.108;2023-03-01T11:25:56;8.20;;;5.50;;
73650;SDS011;61944;52.538;6.108;2023-03-01T11:28:27;13.98;;;5.60;;
73650;SDS011;61944;52.538;6.108;2023-03-01T11:36:03;13.32;;;7.13;;
73650;SDS011;61944;52.538;6.108;2023-03-01T11:38:32;11.02;;;6.75;;
73650;SDS011;61944;52.538;6.108;2023-03-01T11:54:46;11.48;;;6.90;;
73650;SDS011;61944;52.538;6.108;2023-03-01T12:03:09;17.23;;;7.60;;
73650;SDS011;61944;52.538;6.108;2023-03-01T12:06:39;13.43;;;7.50;;
73650;SDS011;61944;52.538;6.108;2023-03-01T12:26:10;12.00;;;7.55;;
73650;SDS011;61944;52.538;6.108;2023-03-01T12:34:23;15.02;;;7.53;;
73650;SDS011;61944;52.538;6.108;2023-03-01T12:53:25;10.50;;;6.20;;
73650;SDS011;61944;52.538;6.108;2023-03-01T12:56:16;15.05;;;7.50;;
73650;SDS011;61944;52.538;6.108;2023-03-01T12:59:18;12.75;;;6.72;;
73650;SDS011;61944;52.538;6.108;2023-03-01T13:12:52;10.45;;;5.97;;
73650;SDS011;61944;52.538;6.108;2023-03-01T13:15:27;10.73;;;6.33;;
73650;SDS011;61944;52.538;6.108;2023-03-01T13:17:56;9.82;;;5.80;;
73650;SDS011;61944;52.538;6.108;2023-03-01T13:20:24;15.43;;;6.72;;
73650;SDS011;61944;52.538;6.108;2023-03-01T13:23:04;8.13;;;6.15;;
73650;SDS011;61944;52.538;6.108;2023-03-01T13:25:34;11.00;;;5.70;;
73650;SDS011;61944;52.538;6.108;2023-03-01T13:31:01;10.55;;;6.45;;
73650;SDS011;61944;52.538;6.108;2023-03-01T13:35:54;11.27;;;6.50;;
73650;SDS011;61944;52.538;6.108;2023-03-01T13:41:08;9.80;;;6.32;;
73650;SDS011;61944;52.538;6.108;2023-03-01T13:43:35;12.05;;;7.05;;
73650;SDS011;61944;52.538;6.108;2023-03-01T13:46:07;11.65;;;6.50;;
73650;SDS011;61944;52.538;6.108;2023-03-01T13:48:36;9.73;;;6.35;;
73650;SDS011;61944;52.538;6.108;2023-03-01T13:51:04;13.20;;;6.47;;
73650;SDS011;61944;52.538;6.108;2023-03-01T13:53:34;11.07;;;5.95;;
73650;SDS011;61944;52.538;6.108;2023-03-01T13:56:07;10.77;;;6.70;;
73650;SDS011;61944;52.538;6.108;2023-03-01T13:58:47;12.10;;;6.47;;
73650;SDS011;61944;52.538;6.108;2023-03-01T14:01:32;10.63;;;6.65;;
73650;SDS011;61944;52.538;6.108;2023-03-01T14:04:00;12.52;;;6.45;;
73650;SDS011;61944;52.538;6.108;2023-03-01T14:06:30;13.27;;;6.47;;
73650;SDS011;61944;52.538;6.108;2023-03-01T14:09:10;10.40;;;6.32;;
73650;SDS011;61944;52.538;6.108;2023-03-01T14:14:34;11.02;;;6.10;;
73650;SDS011;61944;52.538;6.108;2023-03-01T14:19:56;10.55;;;6.68;;
73650;SDS011;61944;52.538;6.108;2023-03-01T14:22:24;8.98;;;6.05;;
73650;SDS011;61944;52.538;6.108;2023-03-01T14:25:01;9.85;;;6.40;;
73650;SDS011;61944;52.538;6.108;2023-03-01T14:27:41;15.18;;;7.78;;
73650;SDS011;61944;52.538;6.108;2023-03-01T14:32:42;12.23;;;6.88;;
73650;SDS011;61944;52.538;6.108;2023-03-01T14:35:24;11.90;;;7.22;;
73650;SDS011;61944;52.538;6.108;2023-03-01T14:37:54;15.70;;;7.03;;
73650;SDS011;61944;52.538;6.108;2023-03-01T14:40:22;11.13;;;7.50;;
73650;SDS011;61944;52.538;6.108;2023-03-01T14:42:53;18.48;;;7.55;;
73650;SDS011;61944;52.538;6.108;2023-03-01T14:45:25;12.63;;;6.50;;
73650;SDS011;61944;52.538;6.108;2023-03-01T14:47:53;12.27;;;7.22;;
73650;SDS011;61944;52.538;6.108;2023-03-01T14:50:27;14.35;;;7.35;;
73650;SDS011;61944;52.538;6.108;2023-03-01T14:52:56;11.20;;;6.47;;
73650;SDS011;61944;52.538;6.108;2023-03-01T14:55:25;11.50;;;7.03;;
73650;SDS011;61944;52.538;6.108;2023-03-01T14:57:54;10.73;;;6.65;;
73650;SDS011;61944;52.538;6.108;2023-03-01T15:00:22;14.20;;;6.85;;
73650;SDS011;61944;52.538;6.108;2023-03-01T15:02:53;12.95;;;5.65;;
73650;SDS011;61944;52.538;6.108;2023-03-01T15:05:25;10.57;;;5.85;;
73650;SDS011;61944;52.538;6.108;2023-03-01T15:07:54;14.02;;;7.93;;
73650;SDS011;61944;52.538;6.108;2023-03-01T15:10:26;12.68;;;7.20;;
73650;SDS011;61944;52.538;6.108;2023-03-01T15:12:53;12.30;;;6.97;;
73650;SDS011;61944;52.538;6.108;2023-03-01T15:15:41;9.20;;;6.35;;
73650;SDS011;61944;52.538;6.108;2023-03-01T15:18:19;10.57;;;6.43;;
73650;SDS011;61944;52.538;6.108;2023-03-01T15:20:47;10.32;;;6.53;;
73650;SDS011;61944;52.538;6.108;2023-03-01T15:23:24;10.90;;;6.38;;
73650;SDS011;61944;52.538;6.108;2023-03-01T15:25:53;9.05;;;6.32;;
73650;SDS011;61944;52.538;6.108;2023-03-01T15:28:24;12.40;;;6.85;;
73650;SDS011;61944;52.538;6.108;2023-03-01T15:30:52;13.05;;;7.05;;
73650;SDS011;61944;52.538;6.108;2023-03-01T15:35:52;11.77;;;7.38;;
73650;SDS011;61944;52.538;6.108;2023-03-01T15:38:35;10.75;;;6.43;;
73650;SDS011;61944;52.538;6.108;2023-03-01T15:41:27;13.77;;;6.55;;
73650;SDS011;61944;52.538;6.108;2023-03-01T15:44:00;13.43;;;7.82;;
73650;SDS011;61944;52.538;6.108;2023-03-01T15:46:44;11.95;;;6.93;;
73650;SDS011;61944;52.538;6.108;2023-03-01T15:51:53;11.85;;;7.30;;
73650;SDS011;61944;52.538;6.108;2023-03-01T15:54:21;17.02;;;8.68;;
73650;SDS011;61944;52.538;6.108;2023-03-01T15:56:50;13.02;;;7.13;;
73650;SDS011;61944;52.538;6.108;2023-03-01T15:59:15;13.68;;;7.35;;
73650;SDS011;61944;52.538;6.108;2023-03-01T16:01:41;12.75;;;7.75;;
73650;SDS011;61944;52.538;6.108;2023-03-01T16:04:14;12.50;;;7.55;;
73650;SDS011;61944;52.538;6.108;2023-03-01T16:06:52;16.45;;;7.90;;
73650;SDS011;61944;52.538;6.108;2023-03-01T16:09:21;9.95;;;6.70;;
73650;SDS011;61944;52.538;6.108;2023-03-01T16:11:50;17.65;;;7.85;;
73650;SDS011;61944;52.538;6.108;2023-03-01T16:14:17;14.32;;;8.07;;
73650;SDS011;61944;52.538;6.108;2023-03-01T16:16:43;14.85;;;8.73;;
73650;SDS011;61944;52.538;6.108;2023-03-01T16:19:09;15.18;;;7.78;;
73650;SDS011;61944;52.538;6.108;2023-03-01T16:21:35;14.20;;;8.02;;
73650;SDS011;61944;52.538;6.108;2023-03-01T16:24:01;16.92;;;9.05;;
73650;SDS011;61944;52.538;6.108;2023-03-01T16:26:26;16.17;;;8.45;;
73650;SDS011;61944;52.538;6.108;2023-03-01T16:28:54;14.90;;;9.07;;
73650;SDS011;61944;52.538;6.108;2023-03-01T16:31:21;15.07;;;8.45;;
73650;SDS011;61944;52.538;6.108;2023-03-01T16:33:46;17.95;;;9.75;;
73650;SDS011;61944;52.538;6.108;2023-03-01T16:36:14;21.58;;;9.88;;
73650;SDS011;61944;52.538;6.108;2023-03-01T16:38:41;18.48;;;8.85;;
73650;SDS011;61944;52.538;6.108;2023-03-01T16:41:11;18.92;;;9.80;;
73650;SDS011;61944;52.538;6.108;2023-03-01T16:43:38;16.17;;;9.50;;
73650;SDS011;61944;52.538;6.108;2023-03-01T16:46:13;16.27;;;10.60;;
73650;SDS011;61944;52.538;6.108;2023-03-01T16:48:43;19.90;;;9.95;;
73650;SDS011;61944;52.538;6.108;2023-03-01T16:51:09;18.08;;;11.20;;
73650;SDS011;61944;52.538;6.108;2023-03-01T16:53:35;30.35;;;11.38;;
73650;SDS011;61944;52.538;6.108;2023-03-01T16:56:03;22.70;;;11.32;;
73650;SDS011;61944;52.538;6.108;2023-03-01T16:58:33;30.17;;;12.88;;
73650;SDS011;61944;52.538;6.108;2023-03-01T17:01:03;20.67;;;11.55;;